sensor_id;sensor_type;location;lat;lon;timestamp;P1;durP1;ratioP1;P2;durP2;ratioP2
21258;SDS011;10787;53.364;-1.480;2023-11-22T00:01:39;24.53;;;10.13;;
21258;SDS011;10787;53.364;-1.480;2023-11-22T00:04:23;17.93;;;6.27;;
21258;SDS011;10787;53.364;-1.480;2023-11-22T00:07:18;12.90;;;5.70;;
21258;SDS011;10787;53.364;-1.480;2023-11-22T00:10:02;11.97;;;5.53;;
21258;SDS011;10787;53.364;-1.480;2023-11-22T00:12:48;9.60;;;5.60;;
21258;SDS011;10787;53.364;-1.480;2023-11-22T00:15:32;16.73;;;5.93;;
21258;SDS011;10787;53.364;-1.480;2023-11-22T00:18:16;10.57;;;5.97;;
21258;SDS011;10787;53.364;-1.480;2023-11-22T00:21:01;10.27;;;5.63;;
21258;SDS011;10787;53.364;-1.480;2023-11-22T00:23:45;10.93;;;5.90;;
21258;SDS011;10787;53.364;-1.480;2023-11-22T00:26:30;12.40;;;6.67;;
21258;SDS011;10787;53.364;-1.480;2023-11-22T00:29:15;11.50;;;6.33;;
21258;SDS011;10787;53.364;-1.480;2023-11-22T00:32:00;12.50;;;6.83;;
21258;SDS011;10787;53.364;-1.480;2023-11-22T00:34:44;18.00;;;6.93;;
21258;SDS011;10787;53.364;-1.480;2023-11-22T00:37:28;13.37;;;7.40;;
21258;SDS011;10787;53.364;-1.480;2023-11-22T00:40:12;15.93;;;8.07;;
21258;SDS011;10787;53.364;-1.480;2023-11-22T00:42:57;28.27;;;13.43;;
21258;SDS011;10787;53.364;-1.480;2023-11-22T00:45:42;50.23;;;18.67;;
21258;SDS011;10787;53.364;-1.480;2023-11-22T00:48:26;39.73;;;16.80;;
21258;SDS011;10787;53.364;-1.480;2023-11-22T00:51:10;33.47;;;15.47;;
21258;SDS011;10787;53.364;-1.480;2023-11-22T00:53:55;25.57;;;12.47;;
21258;SDS011;10787;53.364;-1.480;2023-11-22T00:56:40;20.53;;;11.43;;
21258;SDS011;10787;53.364;-1.480;2023-11-22T00:59:24;18.60;;;10.40;;
21258;SDS011;10787;53.364;-1.480;2023-11-22T01:02:08;19.50;;;10.50;;
21258;SDS011;10787;53.364;-1.480;2023-11-22T01:04:53;22.80;;;11.63;;
21258;SDS011;10787;53.364;-1.480;2023-11-22T01:07:37;21.37;;;11.07;;
21258;SDS011;10787;53.364;-1.480;2023-11-22T01:10:22;20.73;;;10.77;;
21258;SDS011;10787;53.364;-1.480;2023-11-22T01:13:06;26.63;;;12.67;;
21258;SDS011;10787;53.364;-1.480;2023-11-22T01:15:50;24.37;;;11.97;;
21258;SDS011;10787;53.364;-1.480;2023-11-22T01:18:34;23.50;;;12.20;;
21258;SDS011;10787;53.364;-1.480;2023-11-22T01:21:19;21.13;;;11.40;;
21258;SDS011;10787;53.364;-1.480;2023-11-22T01:24:04;19.70;;;11.20;;
21258;SDS011;10787;53.364;-1.480;2023-11-22T01:26:48;17.67;;;10.23;;
21258;SDS011;10787;53.364;-1.480;2023-11-22T01:29:32;17.37;;;10.13;;
21258;SDS011;10787;53.364;-1.480;2023-11-22T01:32:18;17.20;;;9.20;;
21258;SDS011;10787;53.364;-1.480;2023-11-22T01:35:04;14.60;;;8.67;;
21258;SDS011;10787;53.364;-1.480;2023-11-22T01:37:49;15.17;;;9.20;;
21258;SDS011;10787;53.364;-1.480;2023-11-22T01:40:33;12.53;;;8.20;;
21258;SDS011;10787;53.364;-1.480;2023-11-22T01:43:18;16.17;;;8.30;;
21258;SDS011;10787;53.364;-1.480;2023-11-22T01:46:04;15.27;;;7.80;;
21258;SDS011;10787;53.364;-1.480;2023-11-22T01:48:49;14.90;;;8.00;;
21258;SDS011;10787;53.364;-1.480;2023-11-22T01:51:34;12.50;;;7.70;;
21258;SDS011;10787;53.364;-1.480;2023-11-22T01:54:18;14.87;;;8.07;;
21258;SDS011;10787;53.364;-1.480;2023-11-22T01:57:04;12.03;;;7.73;;
21258;SDS011;10787;53.364;-1.480;2023-11-22T01:59:52;14.60;;;7.77;;
21258;SDS011;10787;53.364;-1.480;2023-11-22T02:02:37;13.57;;;8.17;;
21258;SDS011;10787;53.364;-1.480;2023-11-22T02:05:21;14.43;;;7.70;;
21258;SDS011;10787;53.364;-1.480;2023-11-22T02:08:05;11.03;;;6.50;;
21258;SDS011;10787;53.364;-1.480;2023-11-22T02:11:00;10.80;;;6.60;;
21258;SDS011;10787;53.364;-1.480;2023-11-22T02:13:48;12.03;;;6.93;;
21258;SDS011;10787;53.364;-1.480;2023-11-22T02:16:36;13.67;;;7.00;;
21258;SDS011;10787;53.364;-1.480;2023-11-22T02:19:21;11.27;;;7.07;;
21258;SDS011;10787;53.364;-1.480;2023-11-22T02:22:06;10.47;;;6.33;;
21258;SDS011;10787;53.364;-1.480;2023-11-22T02:24:50;11.37;;;5.93;;
21258;SDS011;10787;53.364;-1.480;2023-11-22T02:27:36;11.07;;;5.87;;
21258;SDS011;10787;53.364;-1.480;2023-11-22T02:30:20;11.83;;;6.97;;
21258;SDS011;10787;53.364;-1.480;2023-11-22T02:33:05;14.50;;;7.70;;
21258;SDS011;10787;53.364;-1.480;2023-11-22T02:35:50;15.23;;;7.50;;
21258;SDS011;10787;53.364;-1.480;2023-11-22T02:38:34;12.87;;;7.63;;
21258;SDS011;10787;53.364;-1.480;2023-11-22T02:41:18;13.67;;;7.73;;
21258;SDS011;10787;53.364;-1.480;2023-11-22T02:44:02;15.23;;;7.93;;
21258;SDS011;10787;53.364;-1.480;2023-11-22T02:46:47;16.97;;;8.57;;
21258;SDS011;10787;53.364;-1.480;2023-11-22T02:49:31;14.10;;;7.73;;
21258;SDS011;10787;53.364;-1.480;2023-11-22T02:52:15;11.27;;;7.00;;
21258;SDS011;10787;53.364;-1.480;2023-11-22T02:54:59;11.43;;;6.93;;
21258;SDS011;10787;53.364;-1.480;2023-11-22T02:57:44;11.50;;;6.77;;
21258;SDS011;10787;53.364;-1.480;2023-11-22T03:00:29;11.47;;;6.20;;
21258;SDS011;10787;53.364;-1.480;2023-11-22T03:03:13;10.30;;;6.83;;
21258;SDS011;10787;53.364;-1.480;2023-11-22T03:05:57;9.83;;;6.30;;
21258;SDS011;10787;53.364;-1.480;2023-11-22T03:08:41;11.50;;;5.80;;
21258;SDS011;10787;53.364;-1.480;2023-11-22T03:11:26;8.83;;;4.87;;
21258;SDS011;10787;53.364;-1.480;2023-11-22T03:14:11;10.17;;;5.17;;
21258;SDS011;10787;53.364;-1.480;2023-11-22T03:16:55;9.17;;;5.00;;
21258;SDS011;10787;53.364;-1.480;2023-11-22T03:19:39;11.10;;;5.27;;
21258;SDS011;10787;53.364;-1.480;2023-11-22T03:22:24;9.23;;;4.33;;
21258;SDS011;10787;53.364;-1.480;2023-11-22T03:25:09;6.97;;;4.33;;
21258;SDS011;10787;53.364;-1.480;2023-11-22T03:27:55;6.77;;;4.00;;
21258;SDS011;10787;53.364;-1.480;2023-11-22T03:30:39;9.07;;;3.70;;
21258;SDS011;10787;53.364;-1.480;2023-11-22T03:33:24;6.17;;;3.20;;
21258;SDS011;10787;53.364;-1.480;2023-11-22T03:36:08;5.57;;;2.70;;
21258;SDS011;10787;53.364;-1.480;2023-11-22T03:38:54;5.83;;;2.70;;
21258;SDS011;10787;53.364;-1.480;2023-11-22T03:41:38;6.47;;;2.63;;
21258;SDS011;10787;53.364;-1.480;2023-11-22T03:44:23;6.13;;;3.30;;
21258;SDS011;10787;53.364;-1.480;2023-11-22T03:47:07;5.63;;;2.90;;
21258;SDS011;10787;53.364;-1.480;2023-11-22T03:49:54;5.57;;;3.00;;
21258;SDS011;10787;53.364;-1.480;2023-11-22T03:52:39;4.07;;;2.77;;
21258;SDS011;10787;53.364;-1.480;2023-11-22T03:55:23;5.80;;;2.73;;
21258;SDS011;10787;53.364;-1.480;2023-11-22T03:58:07;5.57;;;2.50;;
21258;SDS011;10787;53.364;-1.480;2023-11-22T04:00:52;6.10;;;2.67;;
21258;SDS011;10787;53.364;-1.480;2023-11-22T04:03:36;6.37;;;2.70;;
21258;SDS011;10787;53.364;-1.480;2023-11-22T04:06:21;7.83;;;2.57;;
21258;SDS011;10787;53.364;-1.480;2023-11-22T04:09:06;6.43;;;2.80;;
21258;SDS011;10787;53.364;-1.480;2023-11-22T04:11:52;5.83;;;2.77;;
21258;SDS011;10787;53.364;-1.480;2023-11-22T04:14:36;6.93;;;2.87;;
21258;SDS011;10787;53.364;-1.480;2023-11-22T04:17:20;6.47;;;2.60;;
21258;SDS011;10787;53.364;-1.480;2023-11-22T04:20:05;4.97;;;2.27;;
21258;SDS011;10787;53.364;-1.480;2023-11-22T04:22:53;9.63;;;2.83;;
21258;SDS011;10787;53.364;-1.480;2023-11-22T04:25:37;7.30;;;3.03;;
21258;SDS011;10787;53.364;-1.480;2023-11-22T04:28:21;5.47;;;2.60;;
21258;SDS011;10787;53.364;-1.480;2023-11-22T04:31:05;6.33;;;2.33;;
21258;SDS011;10787;53.364;-1.480;2023-11-22T04:33:52;6.07;;;2.30;;
21258;SDS011;10787;53.364;-1.480;2023-11-22T04:36:38;4.57;;;1.97;;
21258;SDS011;10787;53.364;-1.480;2023-11-22T04:39:22;3.30;;;1.50;;
21258;SDS011;10787;53.364;-1.480;2023-11-22T04:42:06;9.47;;;1.77;;
21258;SDS011;10787;53.364;-1.480;2023-11-22T04:44:51;4.53;;;1.60;;
21258;SDS011;10787;53.364;-1.480;2023-11-22T04:47:35;6.03;;;1.70;;
21258;SDS011;10787;53.364;-1.480;2023-11-22T04:50:19;3.37;;;1.40;;
21258;SDS011;10787;53.364;-1.480;2023-11-22T04:53:04;4.53;;;1.50;;
21258;SDS011;10787;53.364;-1.480;2023-11-22T04:55:48;4.87;;;1.30;;
21258;SDS011;10787;53.364;-1.480;2023-11-22T04:58:33;8.47;;;1.63;;
21258;SDS011;10787;53.364;-1.480;2023-11-22T05:01:17;4.50;;;1.30;;
21258;SDS011;10787;53.364;-1.480;2023-11-22T05:04:02;6.53;;;1.37;;
21258;SDS011;10787;53.364;-1.480;2023-11-22T05:06:46;3.90;;;1.23;;
21258;SDS011;10787;53.364;-1.480;2023-11-22T05:09:31;6.37;;;1.30;;
21258;SDS011;10787;53.364;-1.480;2023-11-22T05:12:15;4.93;;;1.23;;
21258;SDS011;10787;53.364;-1.480;2023-11-22T05:15:00;7.37;;;1.60;;
21258;SDS011;10787;53.364;-1.480;2023-11-22T05:17:45;6.60;;;1.47;;
21258;SDS011;10787;53.364;-1.480;2023-11-22T05:20:29;5.87;;;1.30;;
21258;SDS011;10787;53.364;-1.480;2023-11-22T05:23:13;5.70;;;1.30;;
21258;SDS011;10787;53.364;-1.480;2023-11-22T05:25:57;6.23;;;1.40;;
21258;SDS011;10787;53.364;-1.480;2023-11-22T05:28:43;3.53;;;1.33;;
21258;SDS011;10787;53.364;-1.480;2023-11-22T05:31:28;5.73;;;1.30;;
21258;SDS011;10787;53.364;-1.480;2023-11-22T05:34:12;5.00;;;1.20;;
21258;SDS011;10787;53.364;-1.480;2023-11-22T05:36:56;3.50;;;0.90;;
21258;SDS011;10787;53.364;-1.480;2023-11-22T05:39:41;4.97;;;1.20;;
21258;SDS011;10787;53.364;-1.480;2023-11-22T05:42:25;4.47;;;1.10;;
21258;SDS011;10787;53.364;-1.480;2023-11-22T05:45:10;4.17;;;1.23;;
21258;SDS011;10787;53.364;-1.480;2023-11-22T05:47:55;4.23;;;1.07;;
21258;SDS011;10787;53.364;-1.480;2023-11-22T05:50:39;4.10;;;0.90;;
21258;SDS011;10787;53.364;-1.480;2023-11-22T05:53:24;5.50;;;1.10;;
21258;SDS011;10787;53.364;-1.480;2023-11-22T05:56:09;4.50;;;1.10;;
21258;SDS011;10787;53.364;-1.480;2023-11-22T05:58:54;3.60;;;1.10;;
21258;SDS011;10787;53.364;-1.480;2023-11-22T06:01:39;4.90;;;1.30;;
21258;SDS011;10787;53.364;-1.480;2023-11-22T06:04:24;3.30;;;1.30;;
21258;SDS011;10787;53.364;-1.480;2023-11-22T06:07:08;4.43;;;1.17;;
21258;SDS011;10787;53.364;-1.480;2023-11-22T06:09:52;5.63;;;1.30;;
21258;SDS011;10787;53.364;-1.480;2023-11-22T06:12:36;4.40;;;0.90;;
21258;SDS011;10787;53.364;-1.480;2023-11-22T06:15:21;4.37;;;0.80;;
21258;SDS011;10787;53.364;-1.480;2023-11-22T06:18:06;3.93;;;1.10;;
21258;SDS011;10787;53.364;-1.480;2023-11-22T06:20:51;3.70;;;0.90;;
21258;SDS011;10787;53.364;-1.480;2023-11-22T06:23:35;4.37;;;1.00;;
21258;SDS011;10787;53.364;-1.480;2023-11-22T06:26:19;3.07;;;1.00;;
21258;SDS011;10787;53.364;-1.480;2023-11-22T06:29:04;5.03;;;1.20;;
21258;SDS011;10787;53.364;-1.480;2023-11-22T06:31:48;7.60;;;1.20;;
21258;SDS011;10787;53.364;-1.480;2023-11-22T06:34:32;4.37;;;1.40;;
21258;SDS011;10787;53.364;-1.480;2023-11-22T06:37:16;4.57;;;1.30;;
21258;SDS011;10787;53.364;-1.480;2023-11-22T06:40:01;3.53;;;1.10;;
21258;SDS011;10787;53.364;-1.480;2023-11-22T06:42:46;2.93;;;1.10;;
21258;SDS011;10787;53.364;-1.480;2023-11-22T06:45:30;4.50;;;1.27;;
21258;SDS011;10787;53.364;-1.480;2023-11-22T06:48:15;4.27;;;1.30;;
21258;SDS011;10787;53.364;-1.480;2023-11-22T06:51:00;4.23;;;1.30;;
21258;SDS011;10787;53.364;-1.480;2023-11-22T06:53:45;4.17;;;1.40;;
21258;SDS011;10787;53.364;-1.480;2023-11-22T06:56:29;2.77;;;1.40;;
21258;SDS011;10787;53.364;-1.480;2023-11-22T06:59:14;2.47;;;1.10;;
21258;SDS011;10787;53.364;-1.480;2023-11-22T07:01:58;4.40;;;1.40;;
21258;SDS011;10787;53.364;-1.480;2023-11-22T07:04:42;5.37;;;1.30;;
21258;SDS011;10787;53.364;-1.480;2023-11-22T07:07:26;4.60;;;1.30;;
21258;SDS011;10787;53.364;-1.480;2023-11-22T07:10:11;6.23;;;1.70;;
21258;SDS011;10787;53.364;-1.480;2023-11-22T07:12:57;9.50;;;2.03;;
21258;SDS011;10787;53.364;-1.480;2023-11-22T07:15:41;4.63;;;1.50;;
21258;SDS011;10787;53.364;-1.480;2023-11-22T07:18:25;4.87;;;1.53;;
21258;SDS011;10787;53.364;-1.480;2023-11-22T07:21:11;4.33;;;1.40;;
21258;SDS011;10787;53.364;-1.480;2023-11-22T07:23:56;5.13;;;1.30;;
21258;SDS011;10787;53.364;-1.480;2023-11-22T07:26:40;5.93;;;1.40;;
21258;SDS011;10787;53.364;-1.480;2023-11-22T07:29:25;5.67;;;1.50;;
21258;SDS011;10787;53.364;-1.480;2023-11-22T07:32:10;8.43;;;1.40;;
21258;SDS011;10787;53.364;-1.480;2023-11-22T07:34:54;4.30;;;1.60;;
21258;SDS011;10787;53.364;-1.480;2023-11-22T07:37:39;4.60;;;1.30;;
21258;SDS011;10787;53.364;-1.480;2023-11-22T07:40:26;6.00;;;1.37;;
21258;SDS011;10787;53.364;-1.480;2023-11-22T07:43:10;2.70;;;1.23;;
21258;SDS011;10787;53.364;-1.480;2023-11-22T07:45:54;4.27;;;1.30;;
21258;SDS011;10787;53.364;-1.480;2023-11-22T07:48:38;7.67;;;1.47;;
21258;SDS011;10787;53.364;-1.480;2023-11-22T07:51:24;6.07;;;1.30;;
21258;SDS011;10787;53.364;-1.480;2023-11-22T07:54:08;3.43;;;1.30;;
21258;SDS011;10787;53.364;-1.480;2023-11-22T07:56:52;4.03;;;1.27;;
21258;SDS011;10787;53.364;-1.480;2023-11-22T07:59:37;3.80;;;1.20;;
21258;SDS011;10787;53.364;-1.480;2023-11-22T08:02:21;2.33;;;1.20;;
21258;SDS011;10787;53.364;-1.480;2023-11-22T08:05:06;4.10;;;1.40;;
21258;SDS011;10787;53.364;-1.480;2023-11-22T08:07:53;2.87;;;1.30;;
21258;SDS011;10787;53.364;-1.480;2023-11-22T08:10:37;3.57;;;1.33;;
21258;SDS011;10787;53.364;-1.480;2023-11-22T08:13:21;3.50;;;1.20;;
21258;SDS011;10787;53.364;-1.480;2023-11-22T08:16:08;2.70;;;1.20;;
21258;SDS011;10787;53.364;-1.480;2023-11-22T08:18:52;4.43;;;1.43;;
21258;SDS011;10787;53.364;-1.480;2023-11-22T08:21:37;5.00;;;1.00;;
21258;SDS011;10787;53.364;-1.480;2023-11-22T08:24:22;2.97;;;1.17;;
21258;SDS011;10787;53.364;-1.480;2023-11-22T08:27:07;4.57;;;1.33;;
21258;SDS011;10787;53.364;-1.480;2023-11-22T08:29:50;4.63;;;1.40;;
21258;SDS011;10787;53.364;-1.480;2023-11-22T08:32:35;2.50;;;1.30;;
21258;SDS011;10787;53.364;-1.480;2023-11-22T08:35:20;2.80;;;1.33;;
21258;SDS011;10787;53.364;-1.480;2023-11-22T08:38:05;4.10;;;1.30;;
21258;SDS011;10787;53.364;-1.480;2023-11-22T08:40:53;5.77;;;1.43;;
21258;SDS011;10787;53.364;-1.480;2023-11-22T08:43:39;3.17;;;1.27;;
21258;SDS011;10787;53.364;-1.480;2023-11-22T08:46:24;3.07;;;1.40;;
21258;SDS011;10787;53.364;-1.480;2023-11-22T08:49:08;2.90;;;1.47;;
21258;SDS011;10787;53.364;-1.480;2023-11-22T08:51:55;7.43;;;1.60;;
21258;SDS011;10787;53.364;-1.480;2023-11-22T08:54:40;4.90;;;1.83;;
21258;SDS011;10787;53.364;-1.480;2023-11-22T08:57:24;3.60;;;1.60;;
21258;SDS011;10787;53.364;-1.480;2023-11-22T09:00:09;5.40;;;1.67;;
21258;SDS011;10787;53.364;-1.480;2023-11-22T09:02:55;3.73;;;1.80;;
21258;SDS011;10787;53.364;-1.480;2023-11-22T09:05:39;4.27;;;2.00;;
21258;SDS011;10787;53.364;-1.480;2023-11-22T09:08:24;3.23;;;2.00;;
21258;SDS011;10787;53.364;-1.480;2023-11-22T09:11:08;4.27;;;2.73;;
21258;SDS011;10787;53.364;-1.480;2023-11-22T09:13:53;5.90;;;2.83;;
21258;SDS011;10787;53.364;-1.480;2023-11-22T09:16:40;4.17;;;2.70;;
21258;SDS011;10787;53.364;-1.480;2023-11-22T09:19:25;4.83;;;2.30;;
21258;SDS011;10787;53.364;-1.480;2023-11-22T09:22:09;6.17;;;2.33;;
21258;SDS011;10787;53.364;-1.480;2023-11-22T09:24:55;4.83;;;1.90;;
21258;SDS011;10787;53.364;-1.480;2023-11-22T09:27:40;5.40;;;1.97;;
21258;SDS011;10787;53.364;-1.480;2023-11-22T09:30:27;3.97;;;2.10;;
21258;SDS011;10787;53.364;-1.480;2023-11-22T09:33:18;4.80;;;2.07;;
21258;SDS011;10787;53.364;-1.480;2023-11-22T09:36:02;3.07;;;1.50;;
21258;SDS011;10787;53.364;-1.480;2023-11-22T09:38:47;5.87;;;2.20;;
21258;SDS011;10787;53.364;-1.480;2023-11-22T09:41:32;4.00;;;1.50;;
21258;SDS011;10787;53.364;-1.480;2023-11-22T09:44:16;5.30;;;1.90;;
21258;SDS011;10787;53.364;-1.480;2023-11-22T09:47:01;3.73;;;1.90;;
21258;SDS011;10787;53.364;-1.480;2023-11-22T09:49:48;5.97;;;1.70;;
21258;SDS011;10787;53.364;-1.480;2023-11-22T09:52:35;3.00;;;1.70;;
21258;SDS011;10787;53.364;-1.480;2023-11-22T09:55:22;3.27;;;1.73;;
21258;SDS011;10787;53.364;-1.480;2023-11-22T09:58:13;8.43;;;2.00;;
21258;SDS011;10787;53.364;-1.480;2023-11-22T10:01:00;3.93;;;1.83;;
21258;SDS011;10787;53.364;-1.480;2023-11-22T10:03:45;4.10;;;1.97;;
21258;SDS011;10787;53.364;-1.480;2023-11-22T10:06:30;2.33;;;1.80;;
21258;SDS011;10787;53.364;-1.480;2023-11-22T10:09:19;5.77;;;2.10;;
21258;SDS011;10787;53.364;-1.480;2023-11-22T10:12:03;4.63;;;2.07;;
21258;SDS011;10787;53.364;-1.480;2023-11-22T10:14:49;3.80;;;2.60;;
21258;SDS011;10787;53.364;-1.480;2023-11-22T10:17:34;6.20;;;2.63;;
21258;SDS011;10787;53.364;-1.480;2023-11-22T10:20:18;5.17;;;2.93;;
21258;SDS011;10787;53.364;-1.480;2023-11-22T10:23:02;5.00;;;3.03;;
21258;SDS011;10787;53.364;-1.480;2023-11-22T10:25:48;8.13;;;5.30;;
21258;SDS011;10787;53.364;-1.480;2023-11-22T10:28:34;7.63;;;5.20;;
21258;SDS011;10787;53.364;-1.480;2023-11-22T10:31:19;5.87;;;4.17;;
21258;SDS011;10787;53.364;-1.480;2023-11-22T10:34:05;6.40;;;4.37;;
21258;SDS011;10787;53.364;-1.480;2023-11-22T10:36:49;8.23;;;5.50;;
21258;SDS011;10787;53.364;-1.480;2023-11-22T10:39:34;8.50;;;6.20;;
21258;SDS011;10787;53.364;-1.480;2023-11-22T10:42:19;9.30;;;6.27;;
21258;SDS011;10787;53.364;-1.480;2023-11-22T10:45:05;8.90;;;5.70;;
21258;SDS011;10787;53.364;-1.480;2023-11-22T10:47:51;9.73;;;6.10;;
21258;SDS011;10787;53.364;-1.480;2023-11-22T10:50:38;6.30;;;4.80;;
21258;SDS011;10787;53.364;-1.480;2023-11-22T10:53:26;4.93;;;3.37;;
21258;SDS011;10787;53.364;-1.480;2023-11-22T10:56:17;5.10;;;2.50;;
21258;SDS011;10787;53.364;-1.480;2023-11-22T10:59:09;5.60;;;4.23;;
21258;SDS011;10787;53.364;-1.480;2023-11-22T11:01:56;6.30;;;4.27;;
21258;SDS011;10787;53.364;-1.480;2023-11-22T11:04:47;8.07;;;4.70;;
21258;SDS011;10787;53.364;-1.480;2023-11-22T11:07:40;33.20;;;18.70;;
21258;SDS011;10787;53.364;-1.480;2023-11-22T11:10:27;7.20;;;5.00;;
21258;SDS011;10787;53.364;-1.480;2023-11-22T11:13:14;6.93;;;4.60;;
21258;SDS011;10787;53.364;-1.480;2023-11-22T11:15:58;8.00;;;4.80;;
21258;SDS011;10787;53.364;-1.480;2023-11-22T11:18:44;5.87;;;4.57;;
21258;SDS011;10787;53.364;-1.480;2023-11-22T11:21:28;7.43;;;4.60;;
21258;SDS011;10787;53.364;-1.480;2023-11-22T11:24:12;5.47;;;4.53;;
21258;SDS011;10787;53.364;-1.480;2023-11-22T11:26:58;7.07;;;4.80;;
21258;SDS011;10787;53.364;-1.480;2023-11-22T11:29:47;6.63;;;5.10;;
21258;SDS011;10787;53.364;-1.480;2023-11-22T11:32:31;7.53;;;5.60;;
21258;SDS011;10787;53.364;-1.480;2023-11-22T11:35:17;9.20;;;5.70;;
21258;SDS011;10787;53.364;-1.480;2023-11-22T11:38:01;6.97;;;5.40;;
21258;SDS011;10787;53.364;-1.480;2023-11-22T11:40:51;10.00;;;6.50;;
21258;SDS011;10787;53.364;-1.480;2023-11-22T11:43:47;15.37;;;7.63;;
21258;SDS011;10787;53.364;-1.480;2023-11-22T11:46:33;9.60;;;6.67;;
21258;SDS011;10787;53.364;-1.480;2023-11-22T11:49:17;9.53;;;7.23;;
21258;SDS011;10787;53.364;-1.480;2023-11-22T11:52:01;11.90;;;8.80;;
21258;SDS011;10787;53.364;-1.480;2023-11-22T11:54:47;16.30;;;12.27;;
21258;SDS011;10787;53.364;-1.480;2023-11-22T11:57:31;18.07;;;13.37;;
21258;SDS011;10787;53.364;-1.480;2023-11-22T12:00:16;17.60;;;13.40;;
21258;SDS011;10787;53.364;-1.480;2023-11-22T12:03:01;16.20;;;12.83;;
21258;SDS011;10787;53.364;-1.480;2023-11-22T12:05:47;17.30;;;13.43;;
21258;SDS011;10787;53.364;-1.480;2023-11-22T12:08:34;17.00;;;14.33;;
21258;SDS011;10787;53.364;-1.480;2023-11-22T12:11:22;16.33;;;12.37;;
21258;SDS011;10787;53.364;-1.480;2023-11-22T12:14:07;12.93;;;10.20;;
21258;SDS011;10787;53.364;-1.480;2023-11-22T12:16:52;14.93;;;11.03;;
21258;SDS011;10787;53.364;-1.480;2023-11-22T12:19:38;14.00;;;11.30;;
21258;SDS011;10787;53.364;-1.480;2023-11-22T12:22:22;15.33;;;10.73;;
21258;SDS011;10787;53.364;-1.480;2023-11-22T12:25:07;14.47;;;12.03;;
21258;SDS011;10787;53.364;-1.480;2023-11-22T12:27:53;16.37;;;11.80;;
21258;SDS011;10787;53.364;-1.480;2023-11-22T12:30:38;16.00;;;12.67;;
21258;SDS011;10787;53.364;-1.480;2023-11-22T12:33:23;14.50;;;12.33;;
21258;SDS011;10787;53.364;-1.480;2023-11-22T12:36:10;16.10;;;13.00;;
21258;SDS011;10787;53.364;-1.480;2023-11-22T12:39:00;15.00;;;12.90;;
21258;SDS011;10787;53.364;-1.480;2023-11-22T12:41:47;14.70;;;12.57;;
21258;SDS011;10787;53.364;-1.480;2023-11-22T12:44:47;12.17;;;10.63;;
21258;SDS011;10787;53.364;-1.480;2023-11-22T12:47:37;11.67;;;8.93;;
21258;SDS011;10787;53.364;-1.480;2023-11-22T12:50:30;5.67;;;5.07;;
21258;SDS011;10787;53.364;-1.480;2023-11-22T12:53:15;6.70;;;4.70;;
21258;SDS011;10787;53.364;-1.480;2023-11-22T12:56:00;5.40;;;4.07;;
21258;SDS011;10787;53.364;-1.480;2023-11-22T12:58:45;5.23;;;4.13;;
21258;SDS011;10787;53.364;-1.480;2023-11-22T13:01:29;6.03;;;4.13;;
21258;SDS011;10787;53.364;-1.480;2023-11-22T13:04:14;6.77;;;4.10;;
21258;SDS011;10787;53.364;-1.480;2023-11-22T13:06:59;6.47;;;3.60;;
21258;SDS011;10787;53.364;-1.480;2023-11-22T13:09:43;3.93;;;3.50;;
21258;SDS011;10787;53.364;-1.480;2023-11-22T13:12:27;7.30;;;3.40;;
21258;SDS011;10787;53.364;-1.480;2023-11-22T13:15:12;5.03;;;3.40;;
21258;SDS011;10787;53.364;-1.480;2023-11-22T13:17:56;4.57;;;2.80;;
21258;SDS011;10787;53.364;-1.480;2023-11-22T13:20:42;3.60;;;2.70;;
21258;SDS011;10787;53.364;-1.480;2023-11-22T13:23:26;3.80;;;2.30;;
21258;SDS011;10787;53.364;-1.480;2023-11-22T13:26:10;3.70;;;2.13;;
21258;SDS011;10787;53.364;-1.480;2023-11-22T13:28:57;3.73;;;1.90;;
21258;SDS011;10787;53.364;-1.480;2023-11-22T13:31:43;2.13;;;1.60;;
21258;SDS011;10787;53.364;-1.480;2023-11-22T13:34:26;3.80;;;1.43;;
21258;SDS011;10787;53.364;-1.480;2023-11-22T13:37:10;4.03;;;1.50;;
21258;SDS011;10787;53.364;-1.480;2023-11-22T13:39:55;3.80;;;1.30;;
21258;SDS011;10787;53.364;-1.480;2023-11-22T13:42:40;2.90;;;1.20;;
21258;SDS011;10787;53.364;-1.480;2023-11-22T13:45:31;1.93;;;1.07;;
21258;SDS011;10787;53.364;-1.480;2023-11-22T13:48:18;2.13;;;1.10;;
21258;SDS011;10787;53.364;-1.480;2023-11-22T13:51:03;1.33;;;0.80;;
21258;SDS011;10787;53.364;-1.480;2023-11-22T13:53:47;2.47;;;0.80;;
21258;SDS011;10787;53.364;-1.480;2023-11-22T13:56:36;4.00;;;0.83;;
21258;SDS011;10787;53.364;-1.480;2023-11-22T13:59:21;2.53;;;0.83;;
21258;SDS011;10787;53.364;-1.480;2023-11-22T14:02:05;1.83;;;0.70;;
21258;SDS011;10787;53.364;-1.480;2023-11-22T14:04:49;2.10;;;0.70;;
21258;SDS011;10787;53.364;-1.480;2023-11-22T14:07:35;1.97;;;0.70;;
21258;SDS011;10787;53.364;-1.480;2023-11-22T14:10:20;2.50;;;0.80;;
21258;SDS011;10787;53.364;-1.480;2023-11-22T14:13:06;1.90;;;0.70;;
21258;SDS011;10787;53.364;-1.480;2023-11-22T14:15:51;1.93;;;0.77;;
21258;SDS011;10787;53.364;-1.480;2023-11-22T14:18:35;1.33;;;0.90;;
21258;SDS011;10787;53.364;-1.480;2023-11-22T14:21:20;3.33;;;1.10;;
21258;SDS011;10787;53.364;-1.480;2023-11-22T14:24:04;1.93;;;0.80;;
21258;SDS011;10787;53.364;-1.480;2023-11-22T14:26:49;1.90;;;0.93;;
21258;SDS011;10787;53.364;-1.480;2023-11-22T14:29:34;3.53;;;1.10;;
21258;SDS011;10787;53.364;-1.480;2023-11-22T14:32:19;1.50;;;0.77;;
21258;SDS011;10787;53.364;-1.480;2023-11-22T14:35:04;1.23;;;0.77;;
21258;SDS011;10787;53.364;-1.480;2023-11-22T14:37:49;1.77;;;0.90;;
21258;SDS011;10787;53.364;-1.480;2023-11-22T14:40:36;2.83;;;1.00;;
21258;SDS011;10787;53.364;-1.480;2023-11-22T14:43:22;2.80;;;0.80;;
21258;SDS011;10787;53.364;-1.480;2023-11-22T14:46:07;1.77;;;0.90;;
21258;SDS011;10787;53.364;-1.480;2023-11-22T14:48:51;3.97;;;1.03;;
21258;SDS011;10787;53.364;-1.480;2023-11-22T14:51:36;1.88;;;1.00;;
21258;SDS011;10787;53.364;-1.480;2023-11-22T14:54:21;2.90;;;0.90;;
21258;SDS011;10787;53.364;-1.480;2023-11-22T14:57:06;2.57;;;0.80;;
21258;SDS011;10787;53.364;-1.480;2023-11-22T14:59:52;2.60;;;1.00;;
21258;SDS011;10787;53.364;-1.480;2023-11-22T15:02:37;2.27;;;0.80;;
21258;SDS011;10787;53.364;-1.480;2023-11-22T15:05:21;2.33;;;1.00;;
21258;SDS011;10787;53.364;-1.480;2023-11-22T15:08:07;4.73;;;1.00;;
21258;SDS011;10787;53.364;-1.480;2023-11-22T15:10:51;2.07;;;0.90;;
21258;SDS011;10787;53.364;-1.480;2023-11-22T15:13:35;2.47;;;1.10;;
21258;SDS011;10787;53.364;-1.480;2023-11-22T15:16:20;1.57;;;1.10;;
21258;SDS011;10787;53.364;-1.480;2023-11-22T15:19:04;1.80;;;0.90;;
21258;SDS011;10787;53.364;-1.480;2023-11-22T15:21:50;1.47;;;0.90;;
21258;SDS011;10787;53.364;-1.480;2023-11-22T15:24:38;4.07;;;1.17;;
21258;SDS011;10787;53.364;-1.480;2023-11-22T15:27:22;2.60;;;0.90;;
21258;SDS011;10787;53.364;-1.480;2023-11-22T15:30:06;5.60;;;1.27;;
21258;SDS011;10787;53.364;-1.480;2023-11-22T15:32:51;2.37;;;1.20;;
21258;SDS011;10787;53.364;-1.480;2023-11-22T15:35:37;4.50;;;1.30;;
21258;SDS011;10787;53.364;-1.480;2023-11-22T15:38:21;3.97;;;1.20;;
21258;SDS011;10787;53.364;-1.480;2023-11-22T15:41:05;4.83;;;1.33;;
21258;SDS011;10787;53.364;-1.480;2023-11-22T15:43:51;3.73;;;1.30;;
21258;SDS011;10787;53.364;-1.480;2023-11-22T15:46:35;1.90;;;0.80;;
21258;SDS011;10787;53.364;-1.480;2023-11-22T15:49:19;2.10;;;1.07;;
21258;SDS011;10787;53.364;-1.480;2023-11-22T15:52:04;4.03;;;1.00;;
21258;SDS011;10787;53.364;-1.480;2023-11-22T15:54:49;3.93;;;1.00;;
21258;SDS011;10787;53.364;-1.480;2023-11-22T15:57:34;2.37;;;1.07;;
21258;SDS011;10787;53.364;-1.480;2023-11-22T16:00:19;2.87;;;1.00;;
21258;SDS011;10787;53.364;-1.480;2023-11-22T16:03:05;4.87;;;0.97;;
21258;SDS011;10787;53.364;-1.480;2023-11-22T16:05:55;5.43;;;1.17;;
21258;SDS011;10787;53.364;-1.480;2023-11-22T16:08:40;2.60;;;1.20;;
21258;SDS011;10787;53.364;-1.480;2023-11-22T16:11:24;2.43;;;1.23;;
21258;SDS011;10787;53.364;-1.480;2023-11-22T16:14:09;2.33;;;1.10;;
21258;SDS011;10787;53.364;-1.480;2023-11-22T16:16:55;1.90;;;1.10;;